Time;durP1;ratioP1;P1;durP2;ratioP2;P2;SDS_P1;SDS_P2;PMS_P1;PMS_P2;Temp;Humidity;BMP_temperature;BMP_pressure;BME280_temperature;BME280_humidity;BME280_pressure;Samples;Min_cycle;Max_cycle;Signal;HPM_P1;HPM_P2
2022/01/22 00:00:38;;;;;;;;;;;;;;;4.7;92.42871;103449.6;;;;-77
2022/01/22 00:01:10;;;;;;;7.5;1.5;;;;;;;;;;;;;-77
2022/01/22 00:05:38;;;;;;;;;;;;;;;4.7;92.3418;103448.3;;;;-77
2022/01/22 00:10:41;;;;;;;;;;;;;;;4.71;92.39746;103439.3;;;;-78
2022/01/22 00:15:42;;;;;;;;;;;;;;;4.72;92.31445;103438.6;;;;-77
2022/01/22 00:20:38;;;;;;;;;;;;;;;4.72;92.31445;103426.4;;;;-77
2022/01/22 00:25:38;;;;;;;;;;;;;;;4.73;92.45605;103427.3;;;;-76
2022/01/22 00:30:38;;;;;;;;;;;;;;;4.74;92.37305;103430.7;;;;-76
2022/01/22 00:31:09;;;;;;;5.9;1.1;;;;;;;;;;;;;-78
2022/01/22 00:35:38;;;;;;;;;;;;;;;4.75;92.42773;103434.1;;;;-79
2022/01/22 00:40:38;;;;;;;;;;;;;;;4.75;92.3291;103428.5;;;;-80
2022/01/22 00:45:37;;;;;;;;;;;;;;;4.75;92.27734;103429.7;;;;-80
2022/01/22 00:50:37;;;;;;;;;;;;;;;4.76;92.42969;103429.9;;;;-80
2022/01/22 00:55:38;;;;;;;;;;;;;;;4.77;92.3877;103431.3;;;;-80
2022/01/22 01:00:38;;;;;;;;;;;;;;;4.77;92.33496;103431.7;;;;-80
2022/01/22 01:01:08;;;;;;;4.3;1;;;;;;;;;;;;;-80
2022/01/22 01:05:38;;;;;;;;;;;;;;;4.77;92.38965;103433.4;;;;-79
2022/01/22 01:10:38;;;;;;;;;;;;;;;4.78;92.41113;103435.9;;;;-79
2022/01/22 01:15:54;;;;;;;;;;;;;;;4.78;92.50977;103437.5;;;;-80
2022/01/22 01:35:38;;;;;;;;;;;;;;;4.78;92.44629;103433.6;;;;-79
2022/01/22 01:40:42;;;;;;;;;;;;;;;4.79;92.52441;103438.1;;;;-80
2022/01/22 01:45:38;;;;;;;;;;;;;;;4.79;92.4375;103439;;;;-79
2022/01/22 01:50:40;;;;;;;;;;;;;;;4.8;92.42871;103437.8;;;;-78
2022/01/22 01:55:49;;;;;;;;;;;;;;;4.79;92.4502;103442.4;;;;-80
2022/01/22 02:00:38;;;;;;;;;;;;;;;4.8;92.41699;103445.3;;;;-80
2022/01/22 02:01:08;;;;;;;4.2;1.1;;;;;;;;;;;;;-80
2022/01/22 02:05:38;;;;;;;;;;;;;;;4.8;92.41699;103442.6;;;;-80
2022/01/22 02:10:43;;;;;;;;;;;;;;;4.8;92.46094;103442;;;;-80
2022/01/22 02:25:38;;;;;;;;;;;;;;;4.8;92.42871;103440.6;;;;-80
2022/01/22 02:30:42;;;;;;;;;;;;;;;4.8;92.42871;103446.3;;;;-79
2022/01/22 02:31:13;;;;;;;6.1;0.9;;;;;;;;;;;;;-79
2022/01/22 02:35:45;;;;;;;;;;;;;;;4.8;92.40625;103446.6;;;;-80
2022/01/22 02:40:43;;;;;;;;;;;;;;;4.8;92.42871;103445.1;;;;-81
2022/01/22 02:45:38;;;;;;;;;;;;;;;4.79;92.42871;103444.2;;;;-80
2022/01/22 02:50:38;;;;;;;;;;;;;;;4.79;92.41504;103436;;;;-80
2022/01/22 02:55:38;;;;;;;;;;;;;;;4.79;92.4043;103435.6;;;;-79
2022/01/22 03:00:38;;;;;;;;;;;;;;;4.79;92.38281;103440;;;;-78
2022/01/22 03:01:07;;;;;;;1.7;0.7;;;;;;;;;;;;;-78
2022/01/22 03:05:38;;;;;;;;;;;;;;;4.79;92.42578;103437.1;;;;-79
2022/01/22 03:10:39;;;;;;;;;;;;;;;4.79;92.46973;103439.6;;;;-78
2022/01/22 03:21:01;;;;;;;;;;;;;;;4.79;92.42871;103434.9;;;;-80
2022/01/22 03:30:37;;;;;;;;;;;;;;;4.79;92.45898;103438.3;;;;-79
2022/01/22 03:31:07;;;;;;;3.8;0.8;;;;;;;;;;;;;-79
2022/01/22 03:35:44;;;;;;;;;;;;;;;4.79;92.44824;103442.1;;;;-79
2022/01/22 03:40:37;;;;;;;;;;;;;;;4.79;92.41504;103443.7;;;;-79
2022/01/22 03:45:37;;;;;;;;;;;;;;;4.79;92.43945;103449.3;;;;-79
2022/01/22 03:50:39;;;;;;;;;;;;;;;4.8;92.46094;103452.1;;;;-81
2022/01/22 03:55:48;;;;;;;;;;;;;;;4.8;92.49316;103451.2;;;;-79
2022/01/22 04:00:38;;;;;;;;;;;;;;;4.8;92.42871;103458.4;;;;-79
2022/01/22 04:01:43;;;;;;;4.7;0.8;;;;;;;;;;;;;-78
2022/01/22 04:05:48;;;;;;;;;;;;;;;4.82;92.49707;103463.2;;;;-79
2022/01/22 04:10:38;;;;;;;;;;;;;;;4.84;92.69727;103453.5;;;;-76
2022/01/22 04:15:39;;;;;;;;;;;;;;;4.86;92.84277;103452.8;;;;-77
2022/01/22 04:25:41;;;;;;;;;;;;;;;4.89;92.9043;103460.5;;;;-77
2022/01/22 04:30:38;;;;;;;;;;;;;;;4.89;92.81738;103460.1;;;;-77
2022/01/22 04:31:06;;;;;;;5.3;0.9;;;;;;;;;;;;;-77
2022/01/22 04:35:38;;;;;;;;;;;;;;;4.9;92.86328;103457.2;;;;-77
2022/01/22 04:40:38;;;;;;;;;;;;;;;4.91;92.86523;103457.5;;;;-77
2022/01/22 04:45:49;;;;;;;;;;;;;;;4.91;92.77832;103452.3;;;;-76
2022/01/22 04:55:38;;;;;;;;;;;;;;;4.92;92.72754;103446.6;;;;-77
2022/01/22 05:00:38;;;;;;;;;;;;;;;4.93;92.7168;103447.4;;;;-77
2022/01/22 05:01:06;;;;;;;4.1;0.7;;;;;;;;;;;;;-77
2022/01/22 05:05:37;;;;;;;;;;;;;;;4.93;92.67285;103456.7;;;;-77
2022/01/22 05:10:38;;;;;;;;;;;;;;;4.93;92.62109;103455.6;;;;-76
2022/01/22 05:15:38;;;;;;;;;;;;;;;4.94;92.79492;103454.5;;;;-78
2022/01/22 05:20:45;;;;;;;;;;;;;;;4.93;92.7168;103449;;;;-77
2022/01/22 05:25:41;;;;;;;;;;;;;;;4.93;92.74902;103445.7;;;;-76
2022/01/22 05:31:22;;;;;;;3.1;0.7;;;;;;;;;;;;;-78
2022/01/22 05:40:38;;;;;;;;;;;;;;;4.95;92.74414;103444.5;;;;-78
2022/01/22 05:45:37;;;;;;;;;;;;;;;4.96;92.64648;103445.4;;;;-79
2022/01/22 05:50:48;;;;;;;;;;;;;;;4.96;92.61523;103449.9;;;;-79
2022/01/22 06:00:37;;;;;;;;;;;;;;;4.97;92.72656;103462.3;;;;-77
2022/01/22 06:01:05;;;;;;;2.9;1;;;;;;;;;;;;;-77
2022/01/22 06:05:38;;;;;;;;;;;;;;;4.98;92.72656;103464.2;;;;-77
2022/01/22 06:10:39;;;;;;;;;;;;;;;4.99;92.69727;103471.1;;;;-77
2022/01/22 06:15:38;;;;;;;;;;;;;;;5;92.67773;103469.3;;;;-78
2022/01/22 06:20:38;;;;;;;;;;;;;;;5.01;92.75391;103476.7;;;;-77
2022/01/22 06:25:37;;;;;;;;;;;;;;;5;92.73242;103481.2;;;;-79
2022/01/22 06:30:37;;;;;;;;;;;;;;;5.01;92.73438;103495.6;;;;-78
2022/01/22 06:31:05;;;;;;;2.7;0.8;;;;;;;;;;;;;-79
2022/01/22 06:35:37;;;;;;;;;;;;;;;5.02;92.80176;103503.2;;;;-79
2022/01/22 06:45:40;;;;;;;;;;;;;;;5.02;92.74902;103505.2;;;;-78
2022/01/22 06:50:38;;;;;;;;;;;;;;;5.03;92.71582;103496.7;;;;-79
2022/01/22 06:55:42;;;;;;;;;;;;;;;5.03;92.74902;103497.2;;;;-78
2022/01/22 07:00:37;;;;;;;;;;;;;;;5.03;92.65137;103501.7;;;;-78
2022/01/22 07:01:04;;;;;;;6.1;1.2;;;;;;;;;;;;;-78
2022/01/22 07:05:38;;;;;;;;;;;;;;;5.05;92.81836;103502;;;;-78
2022/01/22 07:10:38;;;;;;;;;;;;;;;5.05;92.7207;103502.8;;;;-78
2022/01/22 07:15:39;;;;;;;;;;;;;;;5.05;92.67676;103500.4;;;;-78
2022/01/22 07:20:40;;;;;;;;;;;;;;;5.05;92.64453;103501;;;;-79
2022/01/22 07:25:38;;;;;;;;;;;;;;;5.06;92.62402;103503.2;;;;-79
2022/01/22 07:30:38;;;;;;;;;;;;;;;5.06;92.66797;103500;;;;-79
2022/01/22 07:31:04;;;;;;;5.2;1.4;;;;;;;;;;;;;-79
2022/01/22 07:35:38;;;;;;;;;;;;;;;5.06;92.60254;103491.5;;;;-79
2022/01/22 07:40:37;;;;;;;;;;;;;;;5.06;92.59375;103492.3;;;;-78
2022/01/22 07:45:38;;;;;;;;;;;;;;;5.07;92.67188;103494.6;;;;-78
2022/01/22 07:50:37;;;;;;;;;;;;;;;5.06;92.63672;103487.2;;;;-79
2022/01/22 07:55:39;;;;;;;;;;;;;;;5.07;92.62793;103485.9;;;;-79
2022/01/22 08:00:37;;;;;;;;;;;;;;;5.08;92.7168;103486.7;;;;-78
2022/01/22 08:01:04;;;;;;;8.1;1.5;;;;;;;;;;;;;-78
2022/01/22 08:05:39;;;;;;;;;;;;;;;5.08;92.64941;103485.5;;;;-79
2022/01/22 08:10:37;;;;;;;;;;;;;;;5.1;92.75391;103487.3;;;;-79
2022/01/22 08:15:37;;;;;;;;;;;;;;;5.11;92.74707;103491.6;;;;-79
2022/01/22 08:20:38;;;;;;;;;;;;;;;5.12;92.79004;103494.4;;;;-79
2022/01/22 08:25:40;;;;;;;;;;;;;;;5.12;92.72656;103501.2;;;;-79
2022/01/22 08:30:40;;;;;;;;;;;;;;;5.13;92.7373;103513.1;;;;-78
2022/01/22 08:31:18;;;;;;;3.7;1.1;;;;;;;;;;;;;-79
2022/01/22 08:40:38;;;;;;;;;;;;;;;5.17;92.79102;103532.1;;;;-79
2022/01/22 08:45:38;;;;;;;;;;;;;;;5.17;92.82324;103515.7;;;;-79
2022/01/22 08:50:37;;;;;;;;;;;;;;;5.18;92.80176;103503.5;;;;-79
2022/01/22 08:55:37;;;;;;;;;;;;;;;5.19;92.79492;103510.7;;;;-79
2022/01/22 09:00:39;;;;;;;;;;;;;;;5.21;92.63574;103505.2;;;;-78
2022/01/22 09:01:03;;;;;;;3.9;1.6;;;;;;;;;;;;;-79
2022/01/22 09:05:37;;;;;;;;;;;;;;;5.24;92.58691;103505.9;;;;-79
2022/01/22 09:10:37;;;;;;;;;;;;;;;5.27;92.49707;103513.2;;;;-79
2022/01/22 09:15:37;;;;;;;;;;;;;;;5.31;92.50488;103518.2;;;;-80
2022/01/22 09:21:01;;;;;;;;;;;;;;;5.34;92.52344;103520.3;;;;-79
2022/01/22 09:25:38;;;;;;;;;;;;;;;5.39;92.46777;103536.4;;;;-79
2022/01/22 09:30:39;;;;;;;;;;;;;;;5.44;92.39258;103534.4;;;;-80
2022/01/22 09:31:03;;;;;;;4.6;1.8;;;;;;;;;;;;;-79
2022/01/22 09:35:37;;;;;;;;;;;;;;;5.5;92.32715;103540;;;;-80
2022/01/22 09:40:38;;;;;;;;;;;;;;;5.57;92.35156;103543.1;;;;-80
2022/01/22 09:45:37;;;;;;;;;;;;;;;5.62;92.36328;103549;;;;-79
2022/01/22 09:50:38;;;;;;;;;;;;;;;5.69;92.30469;103556.2;;;;-79
2022/01/22 09:55:37;;;;;;;;;;;;;;;5.76;92.29492;103559.7;;;;-77
2022/01/22 10:00:37;;;;;;;;;;;;;;;5.81;92.22949;103556.4;;;;-77
2022/01/22 10:01:17;;;;;;;4.8;1.7;;;;;;;;;;;;;-77
2022/01/22 10:05:39;;;;;;;;;;;;;;;5.86;92.20898;103555.9;;;;-80
2022/01/22 10:10:41;;;;;;;;;;;;;;;5.9;92.23828;103554.4;;;;-80
2022/01/22 10:15:39;;;;;;;;;;;;;;;5.95;92.0752;103558.5;;;;-79
2022/01/22 10:20:42;;;;;;;;;;;;;;;6;92.08496;103562.9;;;;-79
2022/01/22 10:25:41;;;;;;;;;;;;;;;6.05;91.96387;103565.1;;;;-80
2022/01/22 10:30:41;;;;;;;;;;;;;;;6.08;91.91699;103560.6;;;;-80
2022/01/22 10:31:17;;;;;;;4.7;1.6;;;;;;;;;;;;;-80
2022/01/22 10:35:38;;;;;;;;;;;;;;;6.13;91.84863;103556.6;;;;-79
2022/01/22 10:40:40;;;;;;;;;;;;;;;6.17;91.75977;103550.5;;;;-78
2022/01/22 10:45:41;;;;;;;;;;;;;;;6.19;91.64551;103556.2;;;;-81
2022/01/22 10:50:38;;;;;;;;;;;;;;;6.22;91.58594;103562.3;;;;-77
2022/01/22 10:55:47;;;;;;;;;;;;;;;6.25;91.63477;103564.3;;;;-77
2022/01/22 11:00:37;;;;;;;;;;;;;;;6.27;91.43359;103566.7;;;;-76
2022/01/22 11:01:07;;;;;;;5.2;1.6;;;;;;;;;;;;;-77
2022/01/22 11:05:41;;;;;;;;;;;;;;;6.3;91.45898;103574;;;;-78
2022/01/22 11:10:39;;;;;;;;;;;;;;;6.32;91.41016;103580.2;;;;-78
2022/01/22 11:15:38;;;;;;;;;;;;;;;6.34;91.60156;103579.1;;;;-82
2022/01/22 11:20:38;;;;;;;;;;;;;;;6.36;91.41797;103573.9;;;;-78
2022/01/22 11:25:38;;;;;;;;;;;;;;;6.37;91.38867;103569.1;;;;-81
2022/01/22 11:30:38;;;;;;;;;;;;;;;6.39;91.27246;103557.9;;;;-80
2022/01/22 11:31:06;;;;;;;4;1.5;;;;;;;;;;;;;-79
2022/01/22 11:35:43;;;;;;;;;;;;;;;6.43;91.1709;103560.9;;;;-81
2022/01/22 11:40:44;;;;;;;;;;;;;;;6.47;90.95117;103566.1;;;;-80
2022/01/22 11:45:41;;;;;;;;;;;;;;;6.57;91.30859;103552.6;;;;-80
2022/01/22 11:50:38;;;;;;;;;;;;;;;6.64;90.75586;103557.8;;;;-80
2022/01/22 11:55:38;;;;;;;;;;;;;;;6.67;90.63086;103560.7;;;;-78
2022/01/22 12:00:47;;;;;;;;;;;;;;;6.7;90.51758;103566;;;;-79
2022/01/22 12:01:02;;;;;;;32.4;3;;;;;;;;;;;;;-79
2022/01/22 12:05:38;;;;;;;;;;;;;;;6.74;90.39453;103566.2;;;;-78
2022/01/22 12:14:25;;;;;;;;;;;;;;;6.77;90.41113;103561.7;;;;-78
2022/01/22 12:15:49;;;;;;;;;;;;;;;6.8;90.06641;103574.3;;;;-77
2022/01/22 12:21:30;;;;;;;;;;;;;;;6.83;90.29297;103580.2;;;;-78
2022/01/22 12:25:48;;;;;;;;;;;;;;;6.85;90.26367;103555;;;;-79
2022/01/22 12:30:42;;;;;;;;;;;;;;;6.88;90.14941;103547.7;;;;-79
2022/01/22 12:31:06;;;;;;;12.8;2.3;;;;;;;;;;;;;-80
2022/01/22 12:35:41;;;;;;;;;;;;;;;6.9;89.96875;103557.4;;;;-79
2022/01/22 12:40:38;;;;;;;;;;;;;;;6.92;89.9834;103569.1;;;;-80
2022/01/22 12:45:39;;;;;;;;;;;;;;;6.95;90.20801;103577.3;;;;-78
2022/01/22 12:50:39;;;;;;;;;;;;;;;6.95;90.19727;103579.4;;;;-82
2022/01/22 13:00:38;;;;;;;;;;;;;;;6.93;90.33789;103568.2;;;;-78
2022/01/22 13:01:14;;;;;;;7.4;1.8;;;;;;;;;;;;;-78
2022/01/22 13:05:37;;;;;;;;;;;;;;;6.92;90.29004;103577.3;;;;-81
2022/01/22 13:10:47;;;;;;;;;;;;;;;6.92;90.24609;103575.2;;;;-79
2022/01/22 13:15:37;;;;;;;;;;;;;;;6.9;90.21875;103561.8;;;;-80
2022/01/22 13:20:38;;;;;;;;;;;;;;;6.89;90.44824;103576.1;;;;-81
2022/01/22 13:25:41;;;;;;;;;;;;;;;6.88;90.43359;103583.8;;;;-79
2022/01/22 13:30:43;;;;;;;;;;;;;;;6.88;90.88184;103581.6;;;;-80
2022/01/22 13:31:06;;;;;;;4.9;2;;;;;;;;;;;;;-80
2022/01/22 13:35:51;;;;;;;;;;;;;;;6.87;91.06836;103571.4;;;;-80
2022/01/22 13:40:49;;;;;;;;;;;;;;;6.87;91.12109;103570.5;;;;-80
2022/01/22 13:50:37;;;;;;;;;;;;;;;6.87;91.31738;103569;;;;-79
2022/01/22 13:55:37;;;;;;;;;;;;;;;6.86;91.39355;103570.4;;;;-80
2022/01/22 14:00:37;;;;;;;;;;;;;;;6.86;91.34863;103563;;;;-80
2022/01/22 14:01:06;;;;;;;5.2;2.4;;;;;;;;;;;;;-79
2022/01/22 14:05:37;;;;;;;;;;;;;;;6.85;91.27148;103555.8;;;;-80
2022/01/22 14:10:40;;;;;;;;;;;;;;;6.85;91.31348;103557.9;;;;-78
2022/01/22 14:15:41;;;;;;;;;;;;;;;6.84;91.38965;103543.2;;;;-81
2022/01/22 14:20:38;;;;;;;;;;;;;;;6.84;91.36621;103539.5;;;;-80
2022/01/22 14:25:38;;;;;;;;;;;;;;;6.84;91.41016;103533.1;;;;-79
2022/01/22 14:30:42;;;;;;;;;;;;;;;6.83;91.45215;103531;;;;-80
2022/01/22 14:31:02;;;;;;;5.8;3.2;;;;;;;;;;;;;-80
2022/01/22 14:35:38;;;;;;;;;;;;;;;6.83;91.44141;103534.8;;;;-79
2022/01/22 14:45:38;;;;;;;;;;;;;;;6.8;91.45508;103533.5;;;;-80
2022/01/22 14:50:39;;;;;;;;;;;;;;;6.78;91.45117;103539.1;;;;-79
2022/01/22 14:55:39;;;;;;;;;;;;;;;6.75;91.40234;103541.7;;;;-79
2022/01/22 15:00:38;;;;;;;;;;;;;;;6.73;91.33203;103537.6;;;;-77
2022/01/22 15:01:02;;;;;;;7.4;3.3;;;;;;;;;;;;;-78
2022/01/22 15:05:37;;;;;;;;;;;;;;;6.7;91.3252;103543.9;;;;-78
2022/01/22 15:10:37;;;;;;;;;;;;;;;6.67;91.29688;103553.1;;;;-79
2022/01/22 15:15:42;;;;;;;;;;;;;;;6.64;91.28027;103549.4;;;;-82
2022/01/22 15:20:37;;;;;;;;;;;;;;;6.61;91.25293;103554.8;;;;-81
2022/01/22 15:25:37;;;;;;;;;;;;;;;6.58;91.27832;103562.8;;;;-80
2022/01/22 15:30:39;;;;;;;;;;;;;;;6.54;91.37988;103560.8;;;;-81
2022/01/22 15:31:02;;;;;;;9.7;3.5;;;;;;;;;;;;;-80
2022/01/22 15:35:37;;;;;;;;;;;;;;;6.5;91.40332;103573.1;;;;-80
2022/01/22 15:40:37;;;;;;;;;;;;;;;6.46;91.45215;103567.4;;;;-78
2022/01/22 15:45:39;;;;;;;;;;;;;;;6.42;91.3877;103568;;;;-81
2022/01/22 15:50:39;;;;;;;;;;;;;;;6.38;91.37793;103574.7;;;;-80
2022/01/22 15:55:37;;;;;;;;;;;;;;;6.34;91.20801;103578.3;;;;-81
2022/01/22 16:00:39;;;;;;;;;;;;;;;6.29;91.14063;103575.6;;;;-79
2022/01/22 16:01:02;;;;;;;8.3;2.7;;;;;;;;;;;;;-80
2022/01/22 16:05:39;;;;;;;;;;;;;;;6.23;91;103576.9;;;;-79
2022/01/22 16:10:38;;;;;;;;;;;;;;;6.2;91.09082;103586.5;;;;-80
2022/01/22 16:15:37;;;;;;;;;;;;;;;6.16;91.21387;103586.1;;;;-79
2022/01/22 16:20:37;;;;;;;;;;;;;;;6.12;91.24805;103588.4;;;;-78
2022/01/22 16:25:37;;;;;;;;;;;;;;;6.08;91.33887;103589.5;;;;-79
2022/01/22 16:30:37;;;;;;;;;;;;;;;6.05;91.42871;103589.5;;;;-80
2022/01/22 16:31:02;;;;;;;5.9;2.4;;;;;;;;;;;;;-79
2022/01/22 16:35:37;;;;;;;;;;;;;;;6.03;91.45801;103592.3;;;;-80
2022/01/22 16:40:38;;;;;;;;;;;;;;;5.99;91.54883;103586.1;;;;-78
2022/01/22 16:55:52;;;;;;;;;;;;;;;5.88;91.79785;103589;;;;-78
2022/01/22 17:00:42;;;;;;;;;;;;;;;5.85;91.88867;103588.6;;;;-79
2022/01/22 17:01:02;;;;;;;6;2.3;;;;;;;;;;;;;-80
2022/01/22 17:05:41;;;;;;;;;;;;;;;5.83;92.00293;103587.1;;;;-78
2022/01/22 17:10:58;;;;;;;;;;;;;;;5.81;92.00098;103590.8;;;;-78
2022/01/22 17:15:37;;;;;;;;;;;;;;;5.78;92.04785;103588.5;;;;-79
2022/01/22 17:20:38;;;;;;;;;;;;;;;5.76;92.0332;103590.8;;;;-79
2022/01/22 17:25:37;;;;;;;;;;;;;;;5.74;92.00684;103593.3;;;;-81
2022/01/22 17:30:41;;;;;;;;;;;;;;;5.71;92.00098;103598.8;;;;-80
2022/01/22 17:31:01;;;;;;;3.7;1.9;;;;;;;;;;;;;-79
2022/01/22 17:35:38;;;;;;;;;;;;;;;5.68;92.06055;103598.8;;;;-80
2022/01/22 17:40:38;;;;;;;;;;;;;;;5.67;92.08105;103599.4;;;;-80
2022/01/22 17:45:38;;;;;;;;;;;;;;;5.64;92.12988;103608.3;;;;-78
2022/01/22 17:50:38;;;;;;;;;;;;;;;5.63;92.09277;103606.1;;;;-78
2022/01/22 17:55:37;;;;;;;;;;;;;;;5.61;92.06738;103610.9;;;;-77
2022/01/22 18:00:40;;;;;;;;;;;;;;;5.59;92.12695;103604.5;;;;-80
2022/01/22 18:01:04;;;;;;;4.6;1.9;;;;;;;;;;;;;-79
2022/01/22 18:05:37;;;;;;;;;;;;;;;5.59;92.07227;103592.9;;;;-80
2022/01/22 18:10:40;;;;;;;;;;;;;;;5.57;92.125;103597;;;;-77
2022/01/22 18:15:37;;;;;;;;;;;;;;;5.55;92.20605;103592.3;;;;-79
2022/01/22 18:20:37;;;;;;;;;;;;;;;5.52;92.29883;103593.1;;;;-80
2022/01/22 18:25:37;;;;;;;;;;;;;;;5.49;92.36035;103593;;;;-80
2022/01/22 18:30:40;;;;;;;;;;;;;;;5.49;92.37988;103600.3;;;;-80
2022/01/22 18:31:01;;;;;;;3.1;1.9;;;;;;;;;;;;;-80
2022/01/22 18:35:37;;;;;;;;;;;;;;;5.47;92.39746;103611.5;;;;-79
2022/01/22 18:40:39;;;;;;;;;;;;;;;5.47;92.33301;103609.3;;;;-77
2022/01/22 18:45:37;;;;;;;;;;;;;;;5.45;92.37012;103605.3;;;;-77
2022/01/22 18:50:37;;;;;;;;;;;;;;;5.44;92.39258;103601.5;;;;-78
2022/01/22 18:55:37;;;;;;;;;;;;;;;5.43;92.34473;103605;;;;-79
2022/01/22 19:00:37;;;;;;;;;;;;;;;5.42;92.41895;103605.7;;;;-80
2022/01/22 19:01:03;;;;;;;4.2;1.7;;;;;;;;;;;;;-80
2022/01/22 19:05:37;;;;;;;;;;;;;;;5.41;92.42773;103606.4;;;;-79
2022/01/22 19:10:38;;;;;;;;;;;;;;;5.4;92.45898;103607.4;;;;-79
2022/01/22 19:15:37;;;;;;;;;;;;;;;5.4;92.48047;103608.4;;;;-79
2022/01/22 19:20:38;;;;;;;;;;;;;;;5.38;92.44336;103604.3;;;;-77
2022/01/22 19:30:41;;;;;;;;;;;;;;;5.37;92.5293;103605.4;;;;-79
2022/01/22 19:31:05;;;;;;;4.6;1.9;;;;;;;;;;;;;-79
2022/01/22 19:35:39;;;;;;;;;;;;;;;5.37;92.44141;103599;;;;-79
2022/01/22 19:40:38;;;;;;;;;;;;;;;5.37;92.44141;103604.3;;;;-79
2022/01/22 19:45:38;;;;;;;;;;;;;;;5.36;92.4707;103598.2;;;;-79
2022/01/22 19:50:38;;;;;;;;;;;;;;;5.35;92.5127;103597.9;;;;-79
2022/01/22 19:55:38;;;;;;;;;;;;;;;5.34;92.51074;103602.4;;;;-79
2022/01/22 20:00:37;;;;;;;;;;;;;;;5.33;92.49707;103608.7;;;;-79
2022/01/22 20:01:00;;;;;;;3.7;1.8;;;;;;;;;;;;;-79
2022/01/22 20:05:39;;;;;;;;;;;;;;;5.32;92.49707;103602.6;;;;-79
2022/01/22 20:10:37;;;;;;;;;;;;;;;5.31;92.51563;103600.8;;;;-78
2022/01/22 20:15:38;;;;;;;;;;;;;;;5.31;92.48047;103600.5;;;;-78
2022/01/22 20:20:37;;;;;;;;;;;;;;;5.29;92.45898;103601.2;;;;-78
2022/01/22 20:25:37;;;;;;;;;;;;;;;5.29;92.48926;103596.7;;;;-79
2022/01/22 20:30:38;;;;;;;;;;;;;;;5.28;92.45313;103596.9;;;;-78
2022/01/22 20:31:00;;;;;;;4.4;1.8;;;;;;;;;;;;;-77
2022/01/22 20:35:37;;;;;;;;;;;;;;;5.28;92.45313;103593.1;;;;-77
2022/01/22 20:40:37;;;;;;;;;;;;;;;5.27;92.47461;103592.6;;;;-79
2022/01/22 20:45:37;;;;;;;;;;;;;;;5.27;92.45313;103592.8;;;;-78
2022/01/22 20:50:42;;;;;;;;;;;;;;;5.27;92.45313;103604.5;;;;-79
2022/01/22 20:55:39;;;;;;;;;;;;;;;5.27;92.48438;103600.1;;;;-79
2022/01/22 21:00:38;;;;;;;;;;;;;;;5.26;92.48242;103603.8;;;;-80
2022/01/22 21:01:00;;;;;;;4.8;1.8;;;;;;;;;;;;;-80
2022/01/22 21:05:38;;;;;;;;;;;;;;;5.26;92.49316;103610.6;;;;-80
2022/01/22 21:10:40;;;;;;;;;;;;;;;5.26;92.51465;103611.3;;;;-78
2022/01/22 21:15:38;;;;;;;;;;;;;;;5.27;92.47461;103608.2;;;;-78
2022/01/22 21:20:37;;;;;;;;;;;;;;;5.27;92.48535;103611.6;;;;-77
2022/01/22 21:25:37;;;;;;;;;;;;;;;5.27;92.50781;103621;;;;-78
2022/01/22 21:30:37;;;;;;;;;;;;;;;5.26;92.49512;103619.4;;;;-77
2022/01/22 21:31:00;;;;;;;4.6;1.9;;;;;;;;;;;;;-80
2022/01/22 21:35:39;;;;;;;;;;;;;;;5.27;92.5166;103616.3;;;;-78
2022/01/22 21:40:37;;;;;;;;;;;;;;;5.27;92.51855;103611.7;;;;-78
2022/01/22 21:45:37;;;;;;;;;;;;;;;5.27;92.51855;103616.9;;;;-79
2022/01/22 21:50:39;;;;;;;;;;;;;;;5.25;92.48242;103613.5;;;;-80
2022/01/22 21:55:37;;;;;;;;;;;;;;;5.26;92.53613;103622.4;;;;-79
2022/01/22 22:00:37;;;;;;;;;;;;;;;5.25;92.56738;103624.4;;;;-77
2022/01/22 22:00:59;;;;;;;5.5;1.8;;;;;;;;;;;;;-78
2022/01/22 22:05:40;;;;;;;;;;;;;;;5.24;92.5459;103631;;;;-78
2022/01/22 22:10:37;;;;;;;;;;;;;;;5.24;92.58887;103630.4;;;;-77
2022/01/22 22:15:40;;;;;;;;;;;;;;;5.24;92.63281;103638;;;;-79
2022/01/22 22:20:41;;;;;;;;;;;;;;;5.24;92.58887;103638.6;;;;-78
2022/01/22 22:25:37;;;;;;;;;;;;;;;5.25;92.55664;103637.9;;;;-79
2022/01/22 22:30:38;;;;;;;;;;;;;;;5.23;92.57617;103642;;;;-78
2022/01/22 22:31:08;;;;;;;7;1.9;;;;;;;;;;;;;-79
2022/01/22 22:35:37;;;;;;;;;;;;;;;5.23;92.62891;103631.6;;;;-79
2022/01/22 22:40:38;;;;;;;;;;;;;;;5.23;92.66113;103632.2;;;;-78
2022/01/22 22:45:37;;;;;;;;;;;;;;;5.23;92.72656;103631.5;;;;-79
2022/01/22 22:50:37;;;;;;;;;;;;;;;5.23;92.71582;103633.6;;;;-76
2022/01/22 22:55:37;;;;;;;;;;;;;;;5.23;92.67188;103635.5;;;;-78
2022/01/22 23:00:43;;;;;;;;;;;;;;;5.23;92.69434;103638.6;;;;-77
2022/01/22 23:01:04;;;;;;;5.6;1.8;;;;;;;;;;;;;-78
2022/01/22 23:05:37;;;;;;;;;;;;;;;5.23;92.72656;103640.9;;;;-77
2022/01/22 23:10:40;;;;;;;;;;;;;;;5.23;92.75879;103638.8;;;;-76
2022/01/22 23:15:38;;;;;;;;;;;;;;;5.23;92.77051;103632.7;;;;-78
2022/01/22 23:25:41;;;;;;;;;;;;;;;5.24;92.75;103618.5;;;;-77
2022/01/22 23:30:37;;;;;;;;;;;;;;;5.24;92.75195;103623.6;;;;-75
2022/01/22 23:31:03;;;;;;;6.5;2.1;;;;;;;;;;;;;-76
2022/01/22 23:35:48;;;;;;;;;;;;;;;5.25;92.75195;103622.5;;;;-78
2022/01/22 23:55:42;;;;;;;;;;;;;;;5.28;92.84473;103624.6;;;;-77
